ICAO code: LHPR | IATA code: QGY | SITA: QGYAPXH | AFTN: LHPRZPZX

Időjárási adatok

METAR LHPR 020145Z AUTO 00000KT 4100 BR NSC M02/M02 Q1022=
TAF LHPR 012300Z NIL=
Párásság
2022-12-02 02:00:00 UTC
Hőmérséklet
-2.1 °C
 
Harmatpont
-2.6 °C
 
Rel. páratartalom
96%
 
QNH
1022.6 hPa
 
Szélsebesség
0.0 m/s
Max
0.0 m/s
Szélirány
250°
 
Csapadék (1 óra)
0.0 mm
 
Látótávolság
388 m
 
RVR
1200 m RWY29
 
1. felhőréteg mennyisége
7 octa
 
1. felhőréteg alapja
5080 m